createdAt,value
2022-09-28T00:02:46.564Z,10.60
2022-09-28T00:17:52.315Z,10.54
2022-09-28T00:32:57.816Z,10.53
2022-09-28T00:48:03.562Z,10.45
2022-09-28T01:03:10.174Z,10.46
2022-09-28T01:18:22.318Z,10.38
2022-09-28T01:33:32.946Z,10.35
2022-09-28T01:48:47.647Z,10.36
2022-09-28T02:03:57.430Z,10.38
2022-09-28T02:19:04.516Z,10.36
2022-09-28T02:34:10.878Z,10.44
2022-09-28T02:49:28.245Z,10.44
2022-09-28T03:04:41.276Z,10.46
2022-09-28T03:19:46.801Z,10.48
2022-09-28T03:34:52.395Z,10.44
2022-09-28T03:49:57.890Z,10.41
2022-09-28T04:05:03.525Z,10.43
2022-09-28T04:20:10.506Z,10.41
2022-09-28T04:35:16.382Z,10.50
2022-09-28T04:50:22.029Z,10.57
2022-09-28T05:05:27.770Z,10.65
2022-09-28T05:20:33.663Z,10.68
2022-09-28T05:35:39.759Z,10.57
2022-09-28T05:50:45.336Z,10.70
2022-09-28T06:05:50.949Z,10.72
2022-09-28T06:20:56.864Z,10.75
2022-09-28T06:36:03.045Z,10.84
2022-09-28T06:51:09.382Z,10.93
2022-09-28T07:06:15.225Z,11.00
2022-09-28T07:21:29.098Z,10.96
2022-09-28T07:36:36.712Z,10.96
2022-09-28T07:51:43.842Z,11.02
2022-09-28T08:06:49.564Z,11.01
2022-09-28T08:21:55.194Z,11.11
2022-09-28T08:37:00.921Z,11.16
2022-09-28T08:52:13.564Z,11.29
2022-09-28T09:07:55.913Z,11.38
2022-09-28T09:23:05.297Z,11.64
2022-09-28T09:38:27.376Z,11.48
2022-09-28T09:53:39.104Z,11.47
2022-09-28T10:08:48.966Z,11.30
2022-09-28T10:23:58.577Z,11.18
2022-09-28T10:39:06.339Z,10.95
2022-09-28T10:54:18.544Z,11.07
2022-09-28T11:09:31.200Z,10.95
2022-09-28T11:24:37.125Z,11.05
2022-09-28T11:39:52.033Z,11.13
2022-09-28T11:55:03.599Z,11.09
2022-09-28T12:10:16.211Z,11.10
2022-09-28T12:25:24.733Z,11.23
2022-09-28T12:40:39.555Z,11.52
2022-09-28T12:55:56.716Z,11.19
2022-09-28T13:11:16.088Z,11.25
2022-09-28T13:26:28.373Z,11.41
2022-09-28T13:41:35.041Z,11.51
2022-09-28T13:56:51.142Z,11.64
2022-09-28T14:12:02.062Z,11.72
2022-09-28T14:27:40.536Z,11.99
2022-09-28T14:43:24.581Z,11.79
2022-09-28T14:58:34.031Z,11.67
2022-09-28T15:13:41.132Z,11.32
2022-09-28T15:28:47.511Z,11.41
2022-09-28T15:44:08.788Z,11.47
2022-09-28T15:59:28.062Z,11.48
2022-09-28T16:14:34.032Z,11.12
2022-09-28T16:29:41.539Z,11.11
2022-09-28T16:44:47.095Z,11.07
2022-09-28T16:59:52.937Z,10.94
2022-09-28T17:15:00.696Z,10.78
2022-09-28T17:30:08.082Z,10.71
2022-09-28T17:45:13.964Z,10.63
2022-09-28T18:00:19.979Z,10.48
2022-09-28T18:15:25.898Z,10.39
2022-09-28T18:30:31.660Z,10.24
2022-09-28T18:45:37.863Z,10.24
2022-09-28T19:00:44.696Z,10.21
2022-09-28T19:15:50.511Z,10.20
2022-09-28T19:31:00.177Z,10.12
2022-09-28T19:46:08.724Z,10.10
2022-09-28T20:01:14.662Z,10.13
2022-09-28T20:16:24.781Z,10.11
2022-09-28T20:31:30.455Z,10.11
2022-09-28T20:46:37.086Z,10.09
2022-09-28T21:01:43.211Z,10.07
2022-09-28T21:16:48.841Z,10.03
2022-09-28T21:31:54.633Z,10.05
2022-09-28T21:47:00.377Z,9.98
2022-09-28T22:02:07.626Z,9.92
2022-09-28T22:17:13.250Z,9.90
2022-09-28T22:32:18.738Z,9.94
2022-09-28T22:47:24.322Z,9.99
2022-09-28T23:02:29.975Z,9.90
2022-09-28T23:17:35.736Z,9.93
2022-09-28T23:32:41.257Z,9.91
2022-09-28T23:47:46.795Z,9.93
